sensor_id;sensor_type;location;lat;lon;timestamp;temperature;humidity
22984;DHT22;11658;48.908;9.140;2023-06-24T04:01:04;15.70;99.90
22984;DHT22;11658;48.908;9.140;2023-06-24T04:03:30;15.80;99.90
22984;DHT22;11658;48.908;9.140;2023-06-24T04:05:57;15.90;99.90
22984;DHT22;11658;48.908;9.140;2023-06-24T04:08:22;16.00;99.90
22984;DHT22;11658;48.908;9.140;2023-06-24T04:10:50;16.20;99.90
22984;DHT22;11658;48.908;9.140;2023-06-24T04:13:16;16.30;99.90
22984;DHT22;11658;48.908;9.140;2023-06-24T04:15:42;16.40;99.90
22984;DHT22;11658;48.908;9.140;2023-06-24T04:18:08;16.50;99.90
22984;DHT22;11658;48.908;9.140;2023-06-24T04:20:34;16.70;99.90
22984;DHT22;11658;48.908;9.140;2023-06-24T04:22:59;16.80;99.90
22984;DHT22;11658;48.908;9.140;2023-06-24T04:25:25;16.70;99.90
22984;DHT22;11658;48.908;9.140;2023-06-24T04:27:51;16.90;99.90
22984;DHT22;11658;48.908;9.140;2023-06-24T04:30:17;17.20;99.90
22984;DHT22;11658;48.908;9.140;2023-06-24T04:32:42;18.00;99.90
22984;DHT22;11658;48.908;9.140;2023-06-24T04:35:08;19.50;99.90
22984;DHT22;11658;48.908;9.140;2023-06-24T04:37:34;21.00;99.90
22984;DHT22;11658;48.908;9.140;2023-06-24T04:40:00;22.40;99.90
22984;DHT22;11658;48.908;9.140;2023-06-24T04:42:25;23.40;99.90
22984;DHT22;11658;48.908;9.140;2023-06-24T04:44:51;24.10;99.90
22984;DHT22;11658;48.908;9.140;2023-06-24T04:47:17;24.40;99.90
22984;DHT22;11658;48.908;9.140;2023-06-24T04:49:43;24.60;99.90
22984;DHT22;11658;48.908;9.140;2023-06-24T04:52:09;24.80;99.90
22984;DHT22;11658;48.908;9.140;2023-06-24T04:54:35;24.70;99.90
22984;DHT22;11658;48.908;9.140;2023-06-24T04:57:01;25.00;99.90
22984;DHT22;11658;48.908;9.140;2023-06-24T04:59:26;25.40;99.90
22984;DHT22;11658;48.908;9.140;2023-06-24T05:01:52;26.10;99.90
22984;DHT22;11658;48.908;9.140;2023-06-24T05:04:18;26.70;99.90
22984;DHT22;11658;48.908;9.140;2023-06-24T05:06:43;26.90;99.90
22984;DHT22;11658;48.908;9.140;2023-06-24T05:09:09;27.00;99.90
22984;DHT22;11658;48.908;9.140;2023-06-24T05:11:39;27.60;99.90
22984;DHT22;11658;48.908;9.140;2023-06-24T05:14:04;27.80;99.90
22984;DHT22;11658;48.908;9.140;2023-06-24T05:16:30;27.70;99.90
22984;DHT22;11658;48.908;9.140;2023-06-24T05:18:56;28.50;99.90
22984;DHT22;11658;48.908;9.140;2023-06-24T05:21:21;29.30;99.90
22984;DHT22;11658;48.908;9.140;2023-06-24T05:23:47;29.70;99.90
22984;DHT22;11658;48.908;9.140;2023-06-24T05:26:12;29.70;99.90
22984;DHT22;11658;48.908;9.140;2023-06-24T05:28:38;30.00;99.90
22984;DHT22;11658;48.908;9.140;2023-06-24T05:31:03;30.60;99.90
22984;DHT22;11658;48.908;9.140;2023-06-24T05:33:29;31.30;99.90
22984;DHT22;11658;48.908;9.140;2023-06-24T05:35:54;31.90;99.90
22984;DHT22;11658;48.908;9.140;2023-06-24T05:38:20;32.30;99.90
22984;DHT22;11658;48.908;9.140;2023-06-24T05:40:46;32.40;99.90
22984;DHT22;11658;48.908;9.140;2023-06-24T05:43:11;32.80;99.10
22984;DHT22;11658;48.908;9.140;2023-06-24T05:45:37;33.20;98.10
22984;DHT22;11658;48.908;9.140;2023-06-24T05:48:03;32.90;97.50
22984;DHT22;11658;48.908;9.140;2023-06-24T05:50:29;32.80;97.00
22984;DHT22;11658;48.908;9.140;2023-06-24T05:52:54;32.70;96.60
22984;DHT22;11658;48.908;9.140;2023-06-24T05:55:20;32.20;96.50
22984;DHT22;11658;48.908;9.140;2023-06-24T05:57:45;32.50;96.50
22984;DHT22;11658;48.908;9.140;2023-06-24T06:00:11;32.60;96.40
22984;DHT22;11658;48.908;9.140;2023-06-24T06:02:37;32.60;96.20
22984;DHT22;11658;48.908;9.140;2023-06-24T06:05:03;32.70;95.50
22984;DHT22;11658;48.908;9.140;2023-06-24T06:07:29;33.10;95.40
22984;DHT22;11658;48.908;9.140;2023-06-24T06:09:54;33.80;94.60
22984;DHT22;11658;48.908;9.140;2023-06-24T06:12:21;34.80;93.40
22984;DHT22;11658;48.908;9.140;2023-06-24T06:14:46;35.60;92.10
22984;DHT22;11658;48.908;9.140;2023-06-24T06:17:13;35.30;91.60
22984;DHT22;11658;48.908;9.140;2023-06-24T06:19:39;35.80;90.90
22984;DHT22;11658;48.908;9.140;2023-06-24T06:22:07;35.90;90.20
22984;DHT22;11658;48.908;9.140;2023-06-24T06:24:33;35.90;89.40
22984;DHT22;11658;48.908;9.140;2023-06-24T06:26:58;36.20;88.50
22984;DHT22;11658;48.908;9.140;2023-06-24T06:29:24;36.30;86.80
22984;DHT22;11658;48.908;9.140;2023-06-24T06:31:50;36.40;85.60
22984;DHT22;11658;48.908;9.140;2023-06-24T06:34:15;35.90;85.90
22984;DHT22;11658;48.908;9.140;2023-06-24T06:36:41;35.80;85.10
22984;DHT22;11658;48.908;9.140;2023-06-24T06:39:06;35.20;86.40
22984;DHT22;11658;48.908;9.140;2023-06-24T06:41:32;35.60;85.40
22984;DHT22;11658;48.908;9.140;2023-06-24T06:43:57;34.80;84.90
22984;DHT22;11658;48.908;9.140;2023-06-24T06:46:23;34.10;85.00
22984;DHT22;11658;48.908;9.140;2023-06-24T06:48:49;31.60;89.30
22984;DHT22;11658;48.908;9.140;2023-06-24T06:51:14;30.80;91.20
22984;DHT22;11658;48.908;9.140;2023-06-24T06:53:40;30.60;91.00
22984;DHT22;11658;48.908;9.140;2023-06-24T06:56:05;29.60;91.40
22984;DHT22;11658;48.908;9.140;2023-06-24T06:58:31;28.00;92.90
22984;DHT22;11658;48.908;9.140;2023-06-24T07:00:56;26.40;95.40
22984;DHT22;11658;48.908;9.140;2023-06-24T07:03:26;25.90;97.10
22984;DHT22;11658;48.908;9.140;2023-06-24T07:05:53;24.90;98.10
22984;DHT22;11658;48.908;9.140;2023-06-24T07:08:20;24.30;99.90
22984;DHT22;11658;48.908;9.140;2023-06-24T07:10:45;23.90;99.90
22984;DHT22;11658;48.908;9.140;2023-06-24T07:13:11;23.70;99.90
22984;DHT22;11658;48.908;9.140;2023-06-24T07:15:36;23.30;99.90
22984;DHT22;11658;48.908;9.140;2023-06-24T07:18:02;23.20;99.90
22984;DHT22;11658;48.908;9.140;2023-06-24T07:20:28;23.30;99.90
22984;DHT22;11658;48.908;9.140;2023-06-24T07:22:53;23.50;99.90
22984;DHT22;11658;48.908;9.140;2023-06-24T07:25:19;23.60;99.90
22984;DHT22;11658;48.908;9.140;2023-06-24T07:27:44;23.60;99.90
22984;DHT22;11658;48.908;9.140;2023-06-24T07:30:10;23.50;99.90
22984;DHT22;11658;48.908;9.140;2023-06-24T07:32:36;23.40;99.90
22984;DHT22;11658;48.908;9.140;2023-06-24T07:35:01;23.20;99.90
22984;DHT22;11658;48.908;9.140;2023-06-24T07:37:27;23.30;99.90
22984;DHT22;11658;48.908;9.140;2023-06-24T07:39:52;23.50;99.90
22984;DHT22;11658;48.908;9.140;2023-06-24T07:42:18;23.60;99.90
22984;DHT22;11658;48.908;9.140;2023-06-24T07:44:47;23.70;99.90
22984;DHT22;11658;48.908;9.140;2023-06-24T07:47:13;23.80;99.90
22984;DHT22;11658;48.908;9.140;2023-06-24T07:49:39;23.90;99.90
22984;DHT22;11658;48.908;9.140;2023-06-24T07:52:05;24.00;99.90
22984;DHT22;11658;48.908;9.140;2023-06-24T07:54:31;24.00;99.90
22984;DHT22;11658;48.908;9.140;2023-06-24T07:56:57;23.70;99.90
22984;DHT22;11658;48.908;9.140;2023-06-24T07:59:22;23.70;99.90
22984;DHT22;11658;48.908;9.140;2023-06-24T08:01:48;23.70;99.90
22984;DHT22;11658;48.908;9.140;2023-06-24T08:04:14;23.30;99.90
22984;DHT22;11658;48.908;9.140;2023-06-24T08:06:41;23.40;99.90
22984;DHT22;11658;48.908;9.140;2023-06-24T08:09:06;23.60;99.90
22984;DHT22;11658;48.908;9.140;2023-06-24T08:11:32;23.80;99.90
22984;DHT22;11658;48.908;9.140;2023-06-24T08:13:58;24.00;99.90
22984;DHT22;11658;48.908;9.140;2023-06-24T08:16:23;24.00;99.90
22984;DHT22;11658;48.908;9.140;2023-06-24T08:18:49;23.60;99.90
22984;DHT22;11658;48.908;9.140;2023-06-24T08:21:14;23.80;99.90
22984;DHT22;11658;48.908;9.140;2023-06-24T08:23:40;24.00;99.90
22984;DHT22;11658;48.908;9.140;2023-06-24T08:26:06;24.20;99.90
22984;DHT22;11658;48.908;9.140;2023-06-24T08:28:33;24.20;99.90
22984;DHT22;11658;48.908;9.140;2023-06-24T08:30:58;24.40;99.90
22984;DHT22;11658;48.908;9.140;2023-06-24T08:33:24;24.40;99.90
22984;DHT22;11658;48.908;9.140;2023-06-24T08:35:49;24.30;99.90
22984;DHT22;11658;48.908;9.140;2023-06-24T08:38:15;24.40;99.90
22984;DHT22;11658;48.908;9.140;2023-06-24T08:40:41;24.40;99.90
22984;DHT22;11658;48.908;9.140;2023-06-24T08:43:09;24.70;99.90
22984;DHT22;11658;48.908;9.140;2023-06-24T08:45:35;24.80;99.90
22984;DHT22;11658;48.908;9.140;2023-06-24T08:48:01;24.90;99.90
22984;DHT22;11658;48.908;9.140;2023-06-24T08:50:33;24.90;99.90
22984;DHT22;11658;48.908;9.140;2023-06-24T08:53:03;25.10;99.90
22984;DHT22;11658;48.908;9.140;2023-06-24T08:55:32;25.20;99.90
22984;DHT22;11658;48.908;9.140;2023-06-24T08:58:02;25.30;99.90
22984;DHT22;11658;48.908;9.140;2023-06-24T09:00:28;25.10;99.90
22984;DHT22;11658;48.908;9.140;2023-06-24T09:02:54;24.80;99.90
22984;DHT22;11658;48.908;9.140;2023-06-24T09:05:19;24.40;99.90
22984;DHT22;11658;48.908;9.140;2023-06-24T09:07:45;24.40;99.90
22984;DHT22;11658;48.908;9.140;2023-06-24T09:10:10;24.40;99.90
22984;DHT22;11658;48.908;9.140;2023-06-24T09:12:54;24.40;99.90
22984;DHT22;11658;48.908;9.140;2023-06-24T09:15:20;24.40;99.90
22984;DHT22;11658;48.908;9.140;2023-06-24T09:17:45;24.40;99.90
22984;DHT22;11658;48.908;9.140;2023-06-24T09:20:12;24.40;99.90
22984;DHT22;11658;48.908;9.140;2023-06-24T09:22:40;24.40;99.90
22984;DHT22;11658;48.908;9.140;2023-06-24T09:25:07;24.40;99.90
22984;DHT22;11658;48.908;9.140;2023-06-24T09:27:33;24.20;99.90
22984;DHT22;11658;48.908;9.140;2023-06-24T09:29:59;24.30;99.90
22984;DHT22;11658;48.908;9.140;2023-06-24T09:32:31;24.70;99.90
22984;DHT22;11658;48.908;9.140;2023-06-24T09:34:57;25.10;99.90
22984;DHT22;11658;48.908;9.140;2023-06-24T09:37:23;25.40;99.90
22984;DHT22;11658;48.908;9.140;2023-06-24T09:39:49;25.60;99.90
22984;DHT22;11658;48.908;9.140;2023-06-24T09:42:15;25.30;99.90
22984;DHT22;11658;48.908;9.140;2023-06-24T09:44:55;25.10;99.90
22984;DHT22;11658;48.908;9.140;2023-06-24T09:47:21;25.40;99.90
22984;DHT22;11658;48.908;9.140;2023-06-24T09:49:51;25.60;99.90
22984;DHT22;11658;48.908;9.140;2023-06-24T09:52:18;25.70;99.70
22984;DHT22;11658;48.908;9.140;2023-06-24T09:54:47;25.70;98.40
22984;DHT22;11658;48.908;9.140;2023-06-24T09:57:18;25.50;98.10
22984;DHT22;11658;48.908;9.140;2023-06-24T09:59:45;25.30;98.20
22984;DHT22;11658;48.908;9.140;2023-06-24T10:02:14;25.30;97.80
22984;DHT22;11658;48.908;9.140;2023-06-24T10:04:41;25.20;97.70
22984;DHT22;11658;48.908;9.140;2023-06-24T10:07:07;25.30;96.60
22984;DHT22;11658;48.908;9.140;2023-06-24T10:09:33;25.50;96.70
22984;DHT22;11658;48.908;9.140;2023-06-24T10:11:58;25.50;95.30
22984;DHT22;11658;48.908;9.140;2023-06-24T10:14:25;25.40;94.80
22984;DHT22;11658;48.908;9.140;2023-06-24T10:16:51;25.20;95.50
22984;DHT22;11658;48.908;9.140;2023-06-24T10:19:20;24.90;94.40
22984;DHT22;11658;48.908;9.140;2023-06-24T10:21:58;24.80;93.90
22984;DHT22;11658;48.908;9.140;2023-06-24T10:26:55;25.30;96.10
22984;DHT22;11658;48.908;9.140;2023-06-24T10:29:35;25.60;95.60
22984;DHT22;11658;48.908;9.140;2023-06-24T10:32:08;25.50;95.60
22984;DHT22;11658;48.908;9.140;2023-06-24T10:37:25;25.10;95.30
22984;DHT22;11658;48.908;9.140;2023-06-24T10:47:26;25.30;97.10
22984;DHT22;11658;48.908;9.140;2023-06-24T10:49:52;25.10;97.50
22984;DHT22;11658;48.908;9.140;2023-06-24T10:52:20;25.00;97.30
22984;DHT22;11658;48.908;9.140;2023-06-24T10:54:47;25.00;97.10
22984;DHT22;11658;48.908;9.140;2023-06-24T10:57:12;25.10;97.30
22984;DHT22;11658;48.908;9.140;2023-06-24T10:59:42;24.80;98.00
22984;DHT22;11658;48.908;9.140;2023-06-24T11:02:14;24.90;97.80
22984;DHT22;11658;48.908;9.140;2023-06-24T11:04:46;25.00;98.10
22984;DHT22;11658;48.908;9.140;2023-06-24T11:07:12;25.40;97.30
22984;DHT22;11658;48.908;9.140;2023-06-24T11:09:39;25.80;96.00
22984;DHT22;11658;48.908;9.140;2023-06-24T11:12:06;25.90;95.90
22984;DHT22;11658;48.908;9.140;2023-06-24T11:14:33;25.70;95.30
22984;DHT22;11658;48.908;9.140;2023-06-24T11:17:03;25.60;95.10
22984;DHT22;11658;48.908;9.140;2023-06-24T11:19:32;25.60;95.60
22984;DHT22;11658;48.908;9.140;2023-06-24T11:22:01;25.60;95.30
22984;DHT22;11658;48.908;9.140;2023-06-24T11:24:30;25.60;94.80
22984;DHT22;11658;48.908;9.140;2023-06-24T11:26:55;25.90;94.80
22984;DHT22;11658;48.908;9.140;2023-06-24T11:29:22;26.00;94.20
22984;DHT22;11658;48.908;9.140;2023-06-24T11:31:51;26.20;94.10
22984;DHT22;11658;48.908;9.140;2023-06-24T11:34:17;26.50;93.90
22984;DHT22;11658;48.908;9.140;2023-06-24T11:36:42;26.70;93.80
22984;DHT22;11658;48.908;9.140;2023-06-24T11:39:08;26.60;92.80
22984;DHT22;11658;48.908;9.140;2023-06-24T11:41:34;26.30;92.20
22984;DHT22;11658;48.908;9.140;2023-06-24T11:43:59;26.10;93.70
22984;DHT22;11658;48.908;9.140;2023-06-24T11:46:29;26.00;94.10
22984;DHT22;11658;48.908;9.140;2023-06-24T11:49:08;26.00;93.20
22984;DHT22;11658;48.908;9.140;2023-06-24T11:51:34;25.90;93.10
22984;DHT22;11658;48.908;9.140;2023-06-24T11:54:02;25.90;94.00
22984;DHT22;11658;48.908;9.140;2023-06-24T11:56:39;25.90;94.50
22984;DHT22;11658;48.908;9.140;2023-06-24T11:59:26;26.20;94.60
22984;DHT22;11658;48.908;9.140;2023-06-24T12:01:55;26.50;94.20
22984;DHT22;11658;48.908;9.140;2023-06-24T12:04:23;26.50;93.80
22984;DHT22;11658;48.908;9.140;2023-06-24T12:06:52;26.40;93.50
22984;DHT22;11658;48.908;9.140;2023-06-24T12:09:17;26.60;93.80
22984;DHT22;11658;48.908;9.140;2023-06-24T12:11:43;26.70;93.50
22984;DHT22;11658;48.908;9.140;2023-06-24T12:14:09;26.80;92.90
22984;DHT22;11658;48.908;9.140;2023-06-24T12:16:35;26.80;92.70
22984;DHT22;11658;48.908;9.140;2023-06-24T12:19:00;27.00;93.10
22984;DHT22;11658;48.908;9.140;2023-06-24T12:21:26;27.10;92.30
22984;DHT22;11658;48.908;9.140;2023-06-24T12:23:51;27.00;91.50
22984;DHT22;11658;48.908;9.140;2023-06-24T12:26:17;27.00;91.60
22984;DHT22;11658;48.908;9.140;2023-06-24T12:28:42;27.20;91.60
22984;DHT22;11658;48.908;9.140;2023-06-24T12:31:08;27.20;90.30
22984;DHT22;11658;48.908;9.140;2023-06-24T12:33:33;27.00;90.60
22984;DHT22;11658;48.908;9.140;2023-06-24T12:36:00;26.90;91.20
22984;DHT22;11658;48.908;9.140;2023-06-24T12:38:25;26.80;90.50
22984;DHT22;11658;48.908;9.140;2023-06-24T12:40:51;26.70;90.40
22984;DHT22;11658;48.908;9.140;2023-06-24T12:43:18;26.80;91.00
22984;DHT22;11658;48.908;9.140;2023-06-24T12:45:43;26.80;91.30
22984;DHT22;11658;48.908;9.140;2023-06-24T12:48:09;26.80;91.50
22984;DHT22;11658;48.908;9.140;2023-06-24T12:50:35;26.80;91.80
22984;DHT22;11658;48.908;9.140;2023-06-24T12:53:01;27.00;91.10
22984;DHT22;11658;48.908;9.140;2023-06-24T12:55:28;26.80;91.00
22984;DHT22;11658;48.908;9.140;2023-06-24T12:57:54;26.90;91.10
22984;DHT22;11658;48.908;9.140;2023-06-24T13:00:20;26.80;91.80
22984;DHT22;11658;48.908;9.140;2023-06-24T13:02:47;26.70;91.20
22984;DHT22;11658;48.908;9.140;2023-06-24T13:05:12;26.90;91.60
22984;DHT22;11658;48.908;9.140;2023-06-24T13:07:38;26.80;91.50
22984;DHT22;11658;48.908;9.140;2023-06-24T13:10:04;26.70;91.40
22984;DHT22;11658;48.908;9.140;2023-06-24T13:12:32;26.60;91.60
22984;DHT22;11658;48.908;9.140;2023-06-24T13:14:57;26.70;91.60
22984;DHT22;11658;48.908;9.140;2023-06-24T13:17:23;26.80;91.30
22984;DHT22;11658;48.908;9.140;2023-06-24T13:19:50;27.00;91.40
22984;DHT22;11658;48.908;9.140;2023-06-24T13:22:16;27.00;91.10
22984;DHT22;11658;48.908;9.140;2023-06-24T13:24:41;27.00;91.00
22984;DHT22;11658;48.908;9.140;2023-06-24T13:27:07;27.00;91.30
22984;DHT22;11658;48.908;9.140;2023-06-24T13:29:33;27.20;91.20
22984;DHT22;11658;48.908;9.140;2023-06-24T13:31:59;27.40;91.00
22984;DHT22;11658;48.908;9.140;2023-06-24T13:34:24;27.50;90.70
22984;DHT22;11658;48.908;9.140;2023-06-24T13:36:50;27.40;90.90
22984;DHT22;11658;48.908;9.140;2023-06-24T13:39:16;27.40;92.20
22984;DHT22;11658;48.908;9.140;2023-06-24T13:41:44;27.40;90.90
22984;DHT22;11658;48.908;9.140;2023-06-24T13:44:09;27.30;91.00
22984;DHT22;11658;48.908;9.140;2023-06-24T13:46:35;27.20;90.00
22984;DHT22;11658;48.908;9.140;2023-06-24T13:49:01;27.00;90.40
22984;DHT22;11658;48.908;9.140;2023-06-24T13:51:28;27.20;90.50
22984;DHT22;11658;48.908;9.140;2023-06-24T13:53:54;27.40;89.50
22984;DHT22;11658;48.908;9.140;2023-06-24T13:56:21;27.50;90.10
22984;DHT22;11658;48.908;9.140;2023-06-24T13:58:50;27.60;89.80
22984;DHT22;11658;48.908;9.140;2023-06-24T14:01:16;27.60;88.60
22984;DHT22;11658;48.908;9.140;2023-06-24T14:03:43;27.80;88.40
22984;DHT22;11658;48.908;9.140;2023-06-24T14:06:09;28.00;89.40
22984;DHT22;11658;48.908;9.140;2023-06-24T14:08:35;27.70;88.10
22984;DHT22;11658;48.908;9.140;2023-06-24T14:11:01;27.50;88.60
22984;DHT22;11658;48.908;9.140;2023-06-24T14:13:28;27.30;88.80
22984;DHT22;11658;48.908;9.140;2023-06-24T14:15:55;27.20;89.00
22984;DHT22;11658;48.908;9.140;2023-06-24T14:18:21;27.20;88.60
22984;DHT22;11658;48.908;9.140;2023-06-24T14:20:46;27.00;87.40
22984;DHT22;11658;48.908;9.140;2023-06-24T14:23:12;27.00;87.80
22984;DHT22;11658;48.908;9.140;2023-06-24T14:25:38;27.20;88.60
22984;DHT22;11658;48.908;9.140;2023-06-24T14:28:04;27.40;89.10
22984;DHT22;11658;48.908;9.140;2023-06-24T14:30:30;27.50;87.30
22984;DHT22;11658;48.908;9.140;2023-06-24T14:32:56;27.40;86.90
22984;DHT22;11658;48.908;9.140;2023-06-24T14:35:21;27.60;87.90
22984;DHT22;11658;48.908;9.140;2023-06-24T14:37:47;27.50;87.50
22984;DHT22;11658;48.908;9.140;2023-06-24T14:40:12;27.40;87.50
22984;DHT22;11658;48.908;9.140;2023-06-24T14:42:38;27.20;87.50
22984;DHT22;11658;48.908;9.140;2023-06-24T14:45:04;27.20;87.80
22984;DHT22;11658;48.908;9.140;2023-06-24T14:47:29;27.30;87.80
22984;DHT22;11658;48.908;9.140;2023-06-24T14:49:56;27.40;87.00
22984;DHT22;11658;48.908;9.140;2023-06-24T14:52:22;27.30;85.80
22984;DHT22;11658;48.908;9.140;2023-06-24T14:54:47;27.30;87.50
22984;DHT22;11658;48.908;9.140;2023-06-24T14:57:13;27.30;85.30
22984;DHT22;11658;48.908;9.140;2023-06-24T14:59:41;27.20;85.00
22984;DHT22;11658;48.908;9.140;2023-06-24T15:02:07;27.20;85.90
22984;DHT22;11658;48.908;9.140;2023-06-24T15:04:32;27.30;86.30
22984;DHT22;11658;48.908;9.140;2023-06-24T15:06:59;27.30;86.40
22984;DHT22;11658;48.908;9.140;2023-06-24T15:09:25;27.30;84.60
22984;DHT22;11658;48.908;9.140;2023-06-24T15:11:52;27.20;85.00
22984;DHT22;11658;48.908;9.140;2023-06-24T15:14:18;27.20;85.10
22984;DHT22;11658;48.908;9.140;2023-06-24T15:16:43;27.50;85.70
22984;DHT22;11658;48.908;9.140;2023-06-24T15:19:09;27.80;87.20
22984;DHT22;11658;48.908;9.140;2023-06-24T15:21:34;28.10;85.00
22984;DHT22;11658;48.908;9.140;2023-06-24T15:24:00;28.20;83.60
22984;DHT22;11658;48.908;9.140;2023-06-24T15:26:25;27.90;83.20
22984;DHT22;11658;48.908;9.140;2023-06-24T15:28:51;28.00;84.80
22984;DHT22;11658;48.908;9.140;2023-06-24T15:31:16;28.10;84.00
22984;DHT22;11658;48.908;9.140;2023-06-24T15:33:42;28.20;82.90
22984;DHT22;11658;48.908;9.140;2023-06-24T15:36:08;28.00;83.70
22984;DHT22;11658;48.908;9.140;2023-06-24T15:38:34;27.90;85.40
22984;DHT22;11658;48.908;9.140;2023-06-24T15:40:59;27.90;85.20
22984;DHT22;11658;48.908;9.140;2023-06-24T15:43:25;28.00;84.80
22984;DHT22;11658;48.908;9.140;2023-06-24T15:45:51;27.80;84.50
22984;DHT22;11658;48.908;9.140;2023-06-24T15:48:16;27.60;83.80
22984;DHT22;11658;48.908;9.140;2023-06-24T15:50:42;27.50;84.50
22984;DHT22;11658;48.908;9.140;2023-06-24T15:53:07;27.50;85.20
22984;DHT22;11658;48.908;9.140;2023-06-24T15:55:33;27.70;85.30
22984;DHT22;11658;48.908;9.140;2023-06-24T15:57:59;27.80;83.40
22984;DHT22;11658;48.908;9.140;2023-06-24T16:00:24;27.60;83.90
22984;DHT22;11658;48.908;9.140;2023-06-24T16:02:50;27.60;83.40
22984;DHT22;11658;48.908;9.140;2023-06-24T16:05:15;27.80;84.00
22984;DHT22;11658;48.908;9.140;2023-06-24T16:07:41;27.80;83.70
22984;DHT22;11658;48.908;9.140;2023-06-24T16:10:07;27.80;83.30
22984;DHT22;11658;48.908;9.140;2023-06-24T16:12:33;27.90;81.90
22984;DHT22;11658;48.908;9.140;2023-06-24T16:14:58;28.10;82.70
22984;DHT22;11658;48.908;9.140;2023-06-24T16:17:24;28.30;82.50
22984;DHT22;11658;48.908;9.140;2023-06-24T16:19:49;28.10;82.20
22984;DHT22;11658;48.908;9.140;2023-06-24T16:22:15;28.00;83.00
22984;DHT22;11658;48.908;9.140;2023-06-24T16:24:41;27.90;82.40
22984;DHT22;11658;48.908;9.140;2023-06-24T16:27:07;27.70;82.50
22984;DHT22;11658;48.908;9.140;2023-06-24T16:29:32;27.80;83.00
22984;DHT22;11658;48.908;9.140;2023-06-24T16:31:58;27.80;82.80
22984;DHT22;11658;48.908;9.140;2023-06-24T16:34:23;27.90;82.20
22984;DHT22;11658;48.908;9.140;2023-06-24T16:36:49;28.40;82.10
22984;DHT22;11658;48.908;9.140;2023-06-24T16:39:15;28.90;81.10
22984;DHT22;11658;48.908;9.140;2023-06-24T16:41:40;30.10;80.20
22984;DHT22;11658;48.908;9.140;2023-06-24T16:44:06;31.60;76.70
22984;DHT22;11658;48.908;9.140;2023-06-24T16:46:31;32.10;74.20
22984;DHT22;11658;48.908;9.140;2023-06-24T16:48:57;32.50;73.40
22984;DHT22;11658;48.908;9.140;2023-06-24T16:51:24;32.30;71.70
22984;DHT22;11658;48.908;9.140;2023-06-24T16:53:50;32.90;70.60
22984;DHT22;11658;48.908;9.140;2023-06-24T16:56:16;33.30;69.10
22984;DHT22;11658;48.908;9.140;2023-06-24T16:58:41;34.40;67.20
22984;DHT22;11658;48.908;9.140;2023-06-24T17:01:07;36.00;64.80
22984;DHT22;11658;48.908;9.140;2023-06-24T17:03:32;36.40;62.50
22984;DHT22;11658;48.908;9.140;2023-06-24T17:05:58;36.10;61.30
22984;DHT22;11658;48.908;9.140;2023-06-24T17:08:24;35.50;61.60
22984;DHT22;11658;48.908;9.140;2023-06-24T17:10:49;35.40;60.70
22984;DHT22;11658;48.908;9.140;2023-06-24T17:13:15;35.20;60.60
22984;DHT22;11658;48.908;9.140;2023-06-24T17:15:40;35.50;60.20
22984;DHT22;11658;48.908;9.140;2023-06-24T17:18:06;35.80;59.30
22984;DHT22;11658;48.908;9.140;2023-06-24T17:20:32;35.40;59.00
22984;DHT22;11658;48.908;9.140;2023-06-24T17:22:57;35.20;59.30
22984;DHT22;11658;48.908;9.140;2023-06-24T17:25:23;35.10;59.30
22984;DHT22;11658;48.908;9.140;2023-06-24T17:27:49;35.40;58.90
22984;DHT22;11658;48.908;9.140;2023-06-24T17:30:17;36.00;57.90
22984;DHT22;11658;48.908;9.140;2023-06-24T17:32:42;36.30;57.40
22984;DHT22;11658;48.908;9.140;2023-06-24T17:35:08;35.70;57.30
22984;DHT22;11658;48.908;9.140;2023-06-24T17:37:34;36.00;57.20
22984;DHT22;11658;48.908;9.140;2023-06-24T17:39:59;35.20;57.00
22984;DHT22;11658;48.908;9.140;2023-06-24T17:42:25;34.40;58.30
22984;DHT22;11658;48.908;9.140;2023-06-24T17:44:51;34.30;58.50
22984;DHT22;11658;48.908;9.140;2023-06-24T17:47:17;33.30;59.50
22984;DHT22;11658;48.908;9.140;2023-06-24T17:49:43;32.70;60.60
22984;DHT22;11658;48.908;9.140;2023-06-24T17:52:08;32.20;61.50
22984;DHT22;11658;48.908;9.140;2023-06-24T17:54:34;31.20;63.00
22984;DHT22;11658;48.908;9.140;2023-06-24T17:56:59;30.70;64.70
22984;DHT22;11658;48.908;9.140;2023-06-24T17:59:25;30.60;64.70
22984;DHT22;11658;48.908;9.140;2023-06-24T18:01:50;30.20;65.40
22984;DHT22;11658;48.908;9.140;2023-06-24T18:04:16;29.10;66.70
22984;DHT22;11658;48.908;9.140;2023-06-24T18:06:43;28.40;68.70
22984;DHT22;11658;48.908;9.140;2023-06-24T18:09:08;28.00;69.90
22984;DHT22;11658;48.908;9.140;2023-06-24T18:11:34;27.50;71.30
22984;DHT22;11658;48.908;9.140;2023-06-24T18:14:00;27.10;72.30
22984;DHT22;11658;48.908;9.140;2023-06-24T18:16:26;26.80;73.80
22984;DHT22;11658;48.908;9.140;2023-06-24T18:18:51;26.60;74.50
22984;DHT22;11658;48.908;9.140;2023-06-24T18:21:17;26.40;75.70
22984;DHT22;11658;48.908;9.140;2023-06-24T18:23:43;26.30;76.90
22984;DHT22;11658;48.908;9.140;2023-06-24T18:26:10;26.20;77.30
22984;DHT22;11658;48.908;9.140;2023-06-24T18:28:38;26.10;78.10
22984;DHT22;11658;48.908;9.140;2023-06-24T18:31:04;26.00;78.80
22984;DHT22;11658;48.908;9.140;2023-06-24T18:33:29;25.90;79.20
22984;DHT22;11658;48.908;9.140;2023-06-24T18:35:55;25.80;80.30
22984;DHT22;11658;48.908;9.140;2023-06-24T18:38:20;25.70;80.90
22984;DHT22;11658;48.908;9.140;2023-06-24T18:40:46;25.60;81.70
22984;DHT22;11658;48.908;9.140;2023-06-24T18:43:12;25.50;82.40
22984;DHT22;11658;48.908;9.140;2023-06-24T18:45:37;25.30;83.10
22984;DHT22;11658;48.908;9.140;2023-06-24T18:48:03;25.30;84.20
22984;DHT22;11658;48.908;9.140;2023-06-24T18:50:28;25.20;85.00
22984;DHT22;11658;48.908;9.140;2023-06-24T18:52:54;25.10;85.40
22984;DHT22;11658;48.908;9.140;2023-06-24T18:55:19;25.00;86.70
22984;DHT22;11658;48.908;9.140;2023-06-24T18:57:45;24.90;88.70
22984;DHT22;11658;48.908;9.140;2023-06-24T19:00:11;24.90;89.20
22984;DHT22;11658;48.908;9.140;2023-06-24T19:02:37;24.80;90.10
22984;DHT22;11658;48.908;9.140;2023-06-24T19:05:03;24.70;90.60
22984;DHT22;11658;48.908;9.140;2023-06-24T19:07:29;24.50;91.20
22984;DHT22;11658;48.908;9.140;2023-06-24T19:09:55;24.40;90.20
22984;DHT22;11658;48.908;9.140;2023-06-24T19:12:20;24.20;91.50
22984;DHT22;11658;48.908;9.140;2023-06-24T19:14:46;24.20;92.20
22984;DHT22;11658;48.908;9.140;2023-06-24T19:17:11;24.10;91.40
22984;DHT22;11658;48.908;9.140;2023-06-24T19:19:37;24.00;91.80
22984;DHT22;11658;48.908;9.140;2023-06-24T19:22:03;23.90;92.30
22984;DHT22;11658;48.908;9.140;2023-06-24T19:24:30;23.80;92.70
22984;DHT22;11658;48.908;9.140;2023-06-24T19:26:56;23.70;93.50
22984;DHT22;11658;48.908;9.140;2023-06-24T19:29:22;23.60;93.20
22984;DHT22;11658;48.908;9.140;2023-06-24T19:31:48;23.60;93.10
22984;DHT22;11658;48.908;9.140;2023-06-24T19:34:14;23.50;93.70
22984;DHT22;11658;48.908;9.140;2023-06-24T19:36:39;23.30;94.00